Bethesda, MD (20811)

12:23 PM EST on March 04, 2015 (GMT -0500)
Woodmont Triangle | Change Station
CLOSE
Current Station
Personal Weather Station
Location: Bethesda, MD
Elevation: 338 ft
Nearby Weather Stations
Active Advisory: Winter Storm Warning

Elev 338 ft 38.99 °N, 77.10 °W | Updated 2 seconds ago

Overcast
Overcast
44.9 °F
Feels Like 45 °F
N
1.0
Wind Variable Wind from SE
Gusts 2.0 mph

Today
High -- | Low -- °F
--% Chance of Precip.
Yesterday
High -- | Low -- °F
Precip. -- in
6:36 AM 6:03 PM
Waxing Gibbous, 99% visible
Pressure 29.93 in
Visibility 4.0 miles
Clouds Few 700 ft
Overcast 8000 ft
Windchill 45 °F
Dew Point 43 °F
Humidity 93%
Rainfall 0.00 in
Snow Depth Not available.
UV 0.7 out of 12
Pollen .70 out of 12
Air Quality Not available.
Flu Activity Not available.
METAR KDCA 041652Z 18007KT 4SM HZ FEW007 OVC080 07/04 A2993 RMK AO2 RAB01E18 SLP135 P0001 T00720044

More Conditions Fewer Conditions

Pressure 29.93 in
Visibility 4.0 miles
Clouds Few 700 ft
Overcast 8000 ft
Windchill 45 °F
Dew Point 43 °F
Humidity 93%
Rainfall 0.00 in
Snow Depth Not available.
UV 0.7 out of 12
Pollen .70 out of 12
Air Quality Not available.
Flu Activity Not available.
METAR KDCA 041652Z 18007KT 4SM HZ FEW007 OVC080 07/04 A2993 RMK AO2 RAB01E18 SLP135 P0001 T00720044

More Conditions Fewer Conditions

10-Day Weather Forecast

Almanac

Astronomy

Mar. 04, 2015 Rise Set
Actual Time
Civil Twilight
Nautical Twilight
Astronomical Twilight
Moon
Length of Visible Light
Length of Day
Tomorrow will be .
, % of the Moon is Illuminated

Today's Extremes

State Highs State Lows

Community

WunderPhotos

Upload Photos

1,802,516 photos uploaded!

WunderBlogs® & News

Nearby

Air Quality

  Air Quality AQ Index Pollutant
Not available.

Snow Depth

Station Depth Elevation

Earthquake Activity

City Distance Mag. Time & Date
Minimum magnitude displayed is 2.5.

Coastal Water Temperatures

Place Temperature

Nearby Weather Stations

Winter Storm Warning
Statement as of 10:12 AM EST on March 04, 2015

... Winter Storm Warning remains in effect from 10 PM this evening
to 7 PM EST Thursday...

* precipitation types... wintry mix late this evening... then
snow... heavy at times.

* Accumulations... snow accumulation of 6 to 10 inches... along
with around a trace of ice.

* Timing... rain changes to wintry mix late this evening then all
snow through Thursday. Snow heaviest Thursday late morning
through the afternoon.

* Temperatures... in the lower 30s... dropping into the mid 20s.

* Winds... north 10 to 15 mph with gusts up to 20 mph.

* Impacts... roads will be snow covered... making travel dangerous.

Precautionary/preparedness actions...

A Winter Storm Warning for heavy snow means severe winter weather
conditions are expected or occurring. Significant amounts of snow
are forecast that will make travel dangerous. Only travel in an
emergency. If you must travel... keep an extra flashlight...
food... and water in your vehicle in case of an emergency.